sensor_id;sensor_type;location;lat;lon;timestamp;P1;durP1;ratioP1;P2;durP2;ratioP2
4208;SDS011;36320;48.860;2.380;2023-04-03T00:02:12;8.75;;;1.80;;
4208;SDS011;36320;48.860;2.380;2023-04-03T00:04:38;7.13;;;1.80;;
4208;SDS011;36320;48.860;2.380;2023-04-03T00:07:04;6.65;;;1.58;;
4208;SDS011;36320;48.860;2.380;2023-04-03T00:09:30;8.10;;;1.70;;
4208;SDS011;36320;48.860;2.380;2023-04-03T00:11:56;10.45;;;1.90;;
4208;SDS011;36320;48.860;2.380;2023-04-03T00:14:22;8.00;;;2.30;;
4208;SDS011;36320;48.860;2.380;2023-04-03T00:16:48;8.85;;;1.90;;
4208;SDS011;36320;48.860;2.380;2023-04-03T00:19:14;6.35;;;1.35;;
4208;SDS011;36320;48.860;2.380;2023-04-03T00:21:40;9.45;;;2.38;;
4208;SDS011;36320;48.860;2.380;2023-04-03T00:24:06;6.75;;;1.80;;
4208;SDS011;36320;48.860;2.380;2023-04-03T00:26:32;6.80;;;1.70;;
4208;SDS011;36320;48.860;2.380;2023-04-03T00:28:58;10.57;;;2.00;;
4208;SDS011;36320;48.860;2.380;2023-04-03T00:31:24;9.55;;;1.70;;
4208;SDS011;36320;48.860;2.380;2023-04-03T00:33:50;7.00;;;1.60;;
4208;SDS011;36320;48.860;2.380;2023-04-03T00:36:16;7.90;;;2.00;;
4208;SDS011;36320;48.860;2.380;2023-04-03T00:38:42;6.40;;;1.60;;
4208;SDS011;36320;48.860;2.380;2023-04-03T00:41:08;7.80;;;2.20;;
4208;SDS011;36320;48.860;2.380;2023-04-03T00:43:35;6.60;;;1.38;;
4208;SDS011;36320;48.860;2.380;2023-04-03T00:46:01;7.75;;;1.75;;
4208;SDS011;36320;48.860;2.380;2023-04-03T00:48:48;9.52;;;1.90;;
4208;SDS011;36320;48.860;2.380;2023-04-03T00:51:17;7.10;;;1.80;;
4208;SDS011;36320;48.860;2.380;2023-04-03T00:53:55;7.63;;;1.60;;
4208;SDS011;36320;48.860;2.380;2023-04-03T00:56:23;6.60;;;1.80;;
4208;SDS011;36320;48.860;2.380;2023-04-03T00:58:58;8.40;;;2.10;;
4208;SDS011;36320;48.860;2.380;2023-04-03T01:01:26;6.85;;;1.70;;
4208;SDS011;36320;48.860;2.380;2023-04-03T01:03:52;7.32;;;1.55;;
4208;SDS011;36320;48.860;2.380;2023-04-03T01:06:29;12.27;;;2.10;;
4208;SDS011;36320;48.860;2.380;2023-04-03T01:08:57;6.10;;;1.30;;
4208;SDS011;36320;48.860;2.380;2023-04-03T01:11:24;7.57;;;2.08;;
4208;SDS011;36320;48.860;2.380;2023-04-03T01:13:51;6.35;;;1.70;;
4208;SDS011;36320;48.860;2.380;2023-04-03T01:16:17;7.30;;;1.90;;
4208;SDS011;36320;48.860;2.380;2023-04-03T01:18:43;10.93;;;2.28;;
4208;SDS011;36320;48.860;2.380;2023-04-03T01:21:14;6.70;;;1.60;;
4208;SDS011;36320;48.860;2.380;2023-04-03T01:23:57;7.97;;;1.70;;
4208;SDS011;36320;48.860;2.380;2023-04-03T01:26:24;8.10;;;2.00;;
4208;SDS011;36320;48.860;2.380;2023-04-03T01:28:50;7.47;;;1.83;;
4208;SDS011;36320;48.860;2.380;2023-04-03T01:31:20;7.13;;;2.00;;
4208;SDS011;36320;48.860;2.380;2023-04-03T01:33:47;6.93;;;1.90;;
4208;SDS011;36320;48.860;2.380;2023-04-03T01:36:15;7.07;;;1.60;;
4208;SDS011;36320;48.860;2.380;2023-04-03T01:38:42;6.38;;;1.33;;
4208;SDS011;36320;48.860;2.380;2023-04-03T01:41:08;6.50;;;1.63;;
4208;SDS011;36320;48.860;2.380;2023-04-03T01:43:34;7.68;;;1.80;;
4208;SDS011;36320;48.860;2.380;2023-04-03T01:46:00;8.68;;;2.33;;
4208;SDS011;36320;48.860;2.380;2023-04-03T01:48:26;7.80;;;2.03;;
4208;SDS011;36320;48.860;2.380;2023-04-03T01:50:52;8.00;;;2.00;;
4208;SDS011;36320;48.860;2.380;2023-04-03T01:53:18;6.53;;;1.83;;
4208;SDS011;36320;48.860;2.380;2023-04-03T01:55:44;8.38;;;1.90;;
4208;SDS011;36320;48.860;2.380;2023-04-03T01:58:10;7.57;;;2.03;;
4208;SDS011;36320;48.860;2.380;2023-04-03T02:00:36;7.75;;;1.80;;
4208;SDS011;36320;48.860;2.380;2023-04-03T02:03:02;7.77;;;2.60;;
4208;SDS011;36320;48.860;2.380;2023-04-03T02:05:28;7.68;;;1.90;;
4208;SDS011;36320;48.860;2.380;2023-04-03T02:07:55;6.78;;;1.55;;
4208;SDS011;36320;48.860;2.380;2023-04-03T02:10:21;6.85;;;1.60;;
4208;SDS011;36320;48.860;2.380;2023-04-03T02:12:47;6.40;;;1.90;;
4208;SDS011;36320;48.860;2.380;2023-04-03T02:15:13;13.63;;;1.90;;
4208;SDS011;36320;48.860;2.380;2023-04-03T02:17:39;8.52;;;2.30;;
4208;SDS011;36320;48.860;2.380;2023-04-03T02:20:05;7.65;;;2.40;;
4208;SDS011;36320;48.860;2.380;2023-04-03T02:22:31;10.73;;;2.40;;
4208;SDS011;36320;48.860;2.380;2023-04-03T02:24:57;7.90;;;1.85;;
4208;SDS011;36320;48.860;2.380;2023-04-03T02:27:23;11.00;;;2.30;;
4208;SDS011;36320;48.860;2.380;2023-04-03T02:29:49;7.38;;;1.85;;
4208;SDS011;36320;48.860;2.380;2023-04-03T02:32:15;7.00;;;1.80;;
4208;SDS011;36320;48.860;2.380;2023-04-03T02:34:41;6.35;;;1.75;;
4208;SDS011;36320;48.860;2.380;2023-04-03T02:37:07;7.22;;;1.90;;
4208;SDS011;36320;48.860;2.380;2023-04-03T02:39:34;6.82;;;1.60;;
4208;SDS011;36320;48.860;2.380;2023-04-03T02:42:00;9.63;;;1.85;;
4208;SDS011;36320;48.860;2.380;2023-04-03T02:44:26;8.10;;;2.08;;
4208;SDS011;36320;48.860;2.380;2023-04-03T02:46:52;7.18;;;1.75;;
4208;SDS011;36320;48.860;2.380;2023-04-03T02:49:18;9.52;;;2.00;;
4208;SDS011;36320;48.860;2.380;2023-04-03T02:51:44;7.30;;;2.00;;
4208;SDS011;36320;48.860;2.380;2023-04-03T02:54:10;7.90;;;2.22;;
4208;SDS011;36320;48.860;2.380;2023-04-03T02:56:37;8.68;;;2.03;;
4208;SDS011;36320;48.860;2.380;2023-04-03T02:59:03;6.88;;;1.88;;
4208;SDS011;36320;48.860;2.380;2023-04-03T03:01:30;9.70;;;2.60;;
4208;SDS011;36320;48.860;2.380;2023-04-03T03:03:57;6.73;;;1.77;;
4208;SDS011;36320;48.860;2.380;2023-04-03T03:06:23;6.82;;;1.80;;
4208;SDS011;36320;48.860;2.380;2023-04-03T03:08:50;6.70;;;1.70;;
4208;SDS011;36320;48.860;2.380;2023-04-03T03:11:16;7.47;;;1.58;;
4208;SDS011;36320;48.860;2.380;2023-04-03T03:13:42;7.18;;;1.88;;
4208;SDS011;36320;48.860;2.380;2023-04-03T03:16:08;5.47;;;1.10;;
4208;SDS011;36320;48.860;2.380;2023-04-03T03:18:34;7.30;;;2.00;;
4208;SDS011;36320;48.860;2.380;2023-04-03T03:21:01;7.50;;;2.30;;
4208;SDS011;36320;48.860;2.380;2023-04-03T03:23:27;6.00;;;1.20;;
4208;SDS011;36320;48.860;2.380;2023-04-03T03:25:55;7.75;;;1.60;;
4208;SDS011;36320;48.860;2.380;2023-04-03T03:28:21;6.22;;;1.50;;
4208;SDS011;36320;48.860;2.380;2023-04-03T03:30:47;7.22;;;1.30;;
4208;SDS011;36320;48.860;2.380;2023-04-03T03:33:13;6.63;;;1.58;;
4208;SDS011;36320;48.860;2.380;2023-04-03T03:35:40;6.90;;;1.50;;
4208;SDS011;36320;48.860;2.380;2023-04-03T03:38:06;7.80;;;1.80;;
4208;SDS011;36320;48.860;2.380;2023-04-03T03:40:32;7.03;;;1.52;;
4208;SDS011;36320;48.860;2.380;2023-04-03T03:42:58;5.70;;;1.30;;
4208;SDS011;36320;48.860;2.380;2023-04-03T03:45:24;6.22;;;1.45;;
4208;SDS011;36320;48.860;2.380;2023-04-03T03:47:50;7.47;;;1.80;;
4208;SDS011;36320;48.860;2.380;2023-04-03T03:50:16;7.07;;;1.70;;
4208;SDS011;36320;48.860;2.380;2023-04-03T03:52:42;7.80;;;1.55;;
4208;SDS011;36320;48.860;2.380;2023-04-03T03:55:09;7.18;;;1.55;;
4208;SDS011;36320;48.860;2.380;2023-04-03T03:57:35;6.40;;;1.50;;
4208;SDS011;36320;48.860;2.380;2023-04-03T04:00:02;6.88;;;1.60;;
4208;SDS011;36320;48.860;2.380;2023-04-03T04:02:28;6.50;;;1.77;;
4208;SDS011;36320;48.860;2.380;2023-04-03T04:04:54;9.88;;;2.00;;
4208;SDS011;36320;48.860;2.380;2023-04-03T04:07:20;8.00;;;1.60;;
4208;SDS011;36320;48.860;2.380;2023-04-03T04:09:46;10.32;;;2.10;;
4208;SDS011;36320;48.860;2.380;2023-04-03T04:12:12;7.80;;;1.70;;
4208;SDS011;36320;48.860;2.380;2023-04-03T04:14:38;10.95;;;2.05;;
4208;SDS011;36320;48.860;2.380;2023-04-03T04:17:04;7.15;;;1.58;;
4208;SDS011;36320;48.860;2.380;2023-04-03T04:19:31;8.10;;;2.23;;
4208;SDS011;36320;48.860;2.380;2023-04-03T04:21:58;7.18;;;1.50;;
4208;SDS011;36320;48.860;2.380;2023-04-03T04:24:24;6.50;;;1.50;;
4208;SDS011;36320;48.860;2.380;2023-04-03T04:26:50;6.53;;;1.50;;
4208;SDS011;36320;48.860;2.380;2023-04-03T04:29:16;6.78;;;1.52;;
4208;SDS011;36320;48.860;2.380;2023-04-03T04:31:42;7.40;;;1.73;;
4208;SDS011;36320;48.860;2.380;2023-04-03T04:34:08;6.60;;;1.33;;
4208;SDS011;36320;48.860;2.380;2023-04-03T04:36:34;6.67;;;1.40;;
4208;SDS011;36320;48.860;2.380;2023-04-03T04:39:00;7.80;;;2.03;;
4208;SDS011;36320;48.860;2.380;2023-04-03T04:41:26;6.50;;;1.40;;
4208;SDS011;36320;48.860;2.380;2023-04-03T04:43:52;6.80;;;1.70;;
4208;SDS011;36320;48.860;2.380;2023-04-03T04:46:18;7.60;;;1.70;;
4208;SDS011;36320;48.860;2.380;2023-04-03T04:48:44;6.93;;;1.90;;
4208;SDS011;36320;48.860;2.380;2023-04-03T04:51:10;6.43;;;1.58;;
4208;SDS011;36320;48.860;2.380;2023-04-03T04:53:36;7.40;;;1.50;;
4208;SDS011;36320;48.860;2.380;2023-04-03T04:56:03;6.15;;;1.63;;
4208;SDS011;36320;48.860;2.380;2023-04-03T04:58:29;6.28;;;1.45;;
4208;SDS011;36320;48.860;2.380;2023-04-03T05:00:59;7.50;;;1.80;;
4208;SDS011;36320;48.860;2.380;2023-04-03T05:03:25;6.78;;;1.60;;
4208;SDS011;36320;48.860;2.380;2023-04-03T05:05:51;7.60;;;2.10;;
4208;SDS011;36320;48.860;2.380;2023-04-03T05:08:17;6.30;;;1.50;;
4208;SDS011;36320;48.860;2.380;2023-04-03T05:10:44;7.50;;;1.90;;
4208;SDS011;36320;48.860;2.380;2023-04-03T05:13:10;7.35;;;1.95;;
4208;SDS011;36320;48.860;2.380;2023-04-03T05:15:36;6.78;;;1.40;;
4208;SDS011;36320;48.860;2.380;2023-04-03T05:18:02;7.87;;;1.50;;
4208;SDS011;36320;48.860;2.380;2023-04-03T05:20:29;7.00;;;1.80;;
4208;SDS011;36320;48.860;2.380;2023-04-03T05:22:55;6.00;;;1.40;;
4208;SDS011;36320;48.860;2.380;2023-04-03T05:25:21;7.03;;;1.63;;
4208;SDS011;36320;48.860;2.380;2023-04-03T05:27:47;7.60;;;1.92;;
4208;SDS011;36320;48.860;2.380;2023-04-03T05:30:13;8.00;;;1.87;;
4208;SDS011;36320;48.860;2.380;2023-04-03T05:32:40;8.20;;;1.70;;
4208;SDS011;36320;48.860;2.380;2023-04-03T05:35:06;6.32;;;1.45;;
4208;SDS011;36320;48.860;2.380;2023-04-03T05:37:32;6.70;;;1.67;;
4208;SDS011;36320;48.860;2.380;2023-04-03T05:39:58;9.50;;;1.70;;
4208;SDS011;36320;48.860;2.380;2023-04-03T05:42:25;7.15;;;1.90;;
4208;SDS011;36320;48.860;2.380;2023-04-03T05:44:50;5.80;;;1.15;;
4208;SDS011;36320;48.860;2.380;2023-04-03T05:47:17;6.95;;;1.50;;
4208;SDS011;36320;48.860;2.380;2023-04-03T05:49:43;8.00;;;1.52;;
4208;SDS011;36320;48.860;2.380;2023-04-03T05:52:44;9.90;;;2.60;;
4208;SDS011;36320;48.860;2.380;2023-04-03T05:55:04;12.43;;;3.20;;
4208;SDS011;36320;48.860;2.380;2023-04-03T05:57:30;10.03;;;2.90;;
4208;SDS011;36320;48.860;2.380;2023-04-03T05:59:56;10.07;;;2.55;;
4208;SDS011;36320;48.860;2.380;2023-04-03T06:02:22;9.37;;;3.37;;
4208;SDS011;36320;48.860;2.380;2023-04-03T06:04:49;10.02;;;3.55;;
4208;SDS011;36320;48.860;2.380;2023-04-03T06:07:20;8.93;;;2.88;;
4208;SDS011;36320;48.860;2.380;2023-04-03T06:09:48;9.67;;;3.20;;
4208;SDS011;36320;48.860;2.380;2023-04-03T06:12:15;9.10;;;2.95;;
4208;SDS011;36320;48.860;2.380;2023-04-03T06:14:41;10.23;;;3.10;;
4208;SDS011;36320;48.860;2.380;2023-04-03T06:17:07;9.68;;;2.80;;
4208;SDS011;36320;48.860;2.380;2023-04-03T06:19:34;9.95;;;2.95;;
4208;SDS011;36320;48.860;2.380;2023-04-03T06:22:00;11.85;;;3.30;;
4208;SDS011;36320;48.860;2.380;2023-04-03T06:24:29;8.25;;;2.70;;
4208;SDS011;36320;48.860;2.380;2023-04-03T06:26:57;10.25;;;3.05;;
4208;SDS011;36320;48.860;2.380;2023-04-03T06:29:23;9.18;;;3.00;;
4208;SDS011;36320;48.860;2.380;2023-04-03T06:31:49;10.15;;;2.95;;
4208;SDS011;36320;48.860;2.380;2023-04-03T06:34:15;8.30;;;2.67;;
4208;SDS011;36320;48.860;2.380;2023-04-03T06:36:42;9.13;;;3.10;;
4208;SDS011;36320;48.860;2.380;2023-04-03T06:39:11;12.48;;;3.05;;
4208;SDS011;36320;48.860;2.380;2023-04-03T06:41:40;10.65;;;2.88;;
4208;SDS011;36320;48.860;2.380;2023-04-03T06:44:06;11.63;;;2.80;;
4208;SDS011;36320;48.860;2.380;2023-04-03T06:46:36;11.53;;;2.90;;
4208;SDS011;36320;48.860;2.380;2023-04-03T06:49:04;9.87;;;2.90;;
4208;SDS011;36320;48.860;2.380;2023-04-03T06:51:32;9.20;;;3.00;;
4208;SDS011;36320;48.860;2.380;2023-04-03T06:53:58;11.83;;;3.00;;
4208;SDS011;36320;48.860;2.380;2023-04-03T06:56:25;7.80;;;2.60;;
4208;SDS011;36320;48.860;2.380;2023-04-03T06:58:52;11.65;;;2.75;;
4208;SDS011;36320;48.860;2.380;2023-04-03T07:01:19;8.20;;;2.50;;
4208;SDS011;36320;48.860;2.380;2023-04-03T07:03:47;8.32;;;2.50;;
4208;SDS011;36320;48.860;2.380;2023-04-03T07:06:14;8.80;;;2.90;;
4208;SDS011;36320;48.860;2.380;2023-04-03T07:08:41;8.63;;;2.58;;
4208;SDS011;36320;48.860;2.380;2023-04-03T07:11:07;10.55;;;3.20;;
4208;SDS011;36320;48.860;2.380;2023-04-03T07:13:34;8.38;;;2.63;;
4208;SDS011;36320;48.860;2.380;2023-04-03T07:16:00;10.05;;;3.20;;
4208;SDS011;36320;48.860;2.380;2023-04-03T07:18:28;9.40;;;2.90;;
4208;SDS011;36320;48.860;2.380;2023-04-03T07:20:54;10.45;;;3.00;;
4208;SDS011;36320;48.860;2.380;2023-04-03T07:23:20;10.20;;;2.60;;
4208;SDS011;36320;48.860;2.380;2023-04-03T07:25:47;10.20;;;3.10;;
4208;SDS011;36320;48.860;2.380;2023-04-03T07:28:15;7.60;;;2.20;;
4208;SDS011;36320;48.860;2.380;2023-04-03T07:30:43;8.32;;;2.95;;
4208;SDS011;36320;48.860;2.380;2023-04-03T07:33:10;9.93;;;2.80;;
4208;SDS011;36320;48.860;2.380;2023-04-03T07:35:36;8.70;;;2.50;;
4208;SDS011;36320;48.860;2.380;2023-04-03T07:38:02;12.80;;;3.00;;
4208;SDS011;36320;48.860;2.380;2023-04-03T07:40:28;11.20;;;3.80;;
4208;SDS011;36320;48.860;2.380;2023-04-03T07:42:54;9.33;;;3.10;;
4208;SDS011;36320;48.860;2.380;2023-04-03T07:45:21;8.10;;;2.58;;
4208;SDS011;36320;48.860;2.380;2023-04-03T07:47:47;9.05;;;2.70;;
4208;SDS011;36320;48.860;2.380;2023-04-03T07:50:13;7.80;;;2.17;;
4208;SDS011;36320;48.860;2.380;2023-04-03T07:52:39;7.53;;;2.20;;
4208;SDS011;36320;48.860;2.380;2023-04-03T07:55:06;8.02;;;2.60;;
4208;SDS011;36320;48.860;2.380;2023-04-03T07:57:32;8.05;;;2.40;;
4208;SDS011;36320;48.860;2.380;2023-04-03T07:59:58;7.93;;;2.27;;
4208;SDS011;36320;48.860;2.380;2023-04-03T08:02:23;8.43;;;2.30;;
4208;SDS011;36320;48.860;2.380;2023-04-03T08:04:49;7.35;;;2.30;;
4208;SDS011;36320;48.860;2.380;2023-04-03T08:07:15;11.60;;;2.55;;
4208;SDS011;36320;48.860;2.380;2023-04-03T08:09:40;7.30;;;2.20;;
4208;SDS011;36320;48.860;2.380;2023-04-03T08:12:07;7.60;;;2.25;;
4208;SDS011;36320;48.860;2.380;2023-04-03T08:14:32;9.30;;;2.30;;
4208;SDS011;36320;48.860;2.380;2023-04-03T08:17:01;8.02;;;2.33;;
4208;SDS011;36320;48.860;2.380;2023-04-03T08:19:29;8.88;;;2.30;;
4208;SDS011;36320;48.860;2.380;2023-04-03T08:21:55;7.03;;;1.70;;
4208;SDS011;36320;48.860;2.380;2023-04-03T08:24:22;6.40;;;1.65;;
4208;SDS011;36320;48.860;2.380;2023-04-03T08:26:47;7.55;;;1.85;;
4208;SDS011;36320;48.860;2.380;2023-04-03T08:29:13;7.10;;;1.90;;
4208;SDS011;36320;48.860;2.380;2023-04-03T08:31:39;7.20;;;1.90;;
4208;SDS011;36320;48.860;2.380;2023-04-03T08:34:04;6.80;;;1.70;;
4208;SDS011;36320;48.860;2.380;2023-04-03T08:36:31;6.22;;;1.60;;
4208;SDS011;36320;48.860;2.380;2023-04-03T08:38:56;6.45;;;1.60;;
4208;SDS011;36320;48.860;2.380;2023-04-03T08:46:40;6.80;;;1.70;;
4208;SDS011;36320;48.860;2.380;2023-04-03T08:49:16;7.60;;;1.50;;
4208;SDS011;36320;48.860;2.380;2023-04-03T08:52:10;6.30;;;1.40;;
4208;SDS011;36320;48.860;2.380;2023-04-03T08:54:58;6.80;;;1.65;;
4208;SDS011;36320;48.860;2.380;2023-04-03T08:57:30;6.77;;;1.60;;
4208;SDS011;36320;48.860;2.380;2023-04-03T09:00:06;7.77;;;1.90;;
4208;SDS011;36320;48.860;2.380;2023-04-03T09:02:50;11.30;;;1.50;;
4208;SDS011;36320;48.860;2.380;2023-04-03T09:05:19;8.20;;;1.67;;
4208;SDS011;36320;48.860;2.380;2023-04-03T09:07:53;6.70;;;1.70;;
4208;SDS011;36320;48.860;2.380;2023-04-03T09:10:40;6.78;;;1.50;;
4208;SDS011;36320;48.860;2.380;2023-04-03T09:13:19;8.75;;;1.70;;
4208;SDS011;36320;48.860;2.380;2023-04-03T09:15:53;6.95;;;1.58;;
4208;SDS011;36320;48.860;2.380;2023-04-03T09:18:23;6.20;;;1.40;;
4208;SDS011;36320;48.860;2.380;2023-04-03T09:21:12;7.37;;;1.67;;
4208;SDS011;36320;48.860;2.380;2023-04-03T09:23:47;6.73;;;1.60;;
4208;SDS011;36320;48.860;2.380;2023-04-03T09:26:24;7.80;;;1.70;;
4208;SDS011;36320;48.860;2.380;2023-04-03T09:28:54;6.50;;;1.60;;
4208;SDS011;36320;48.860;2.380;2023-04-03T09:31:26;7.05;;;1.50;;
4208;SDS011;36320;48.860;2.380;2023-04-03T09:33:57;12.60;;;2.00;;
4208;SDS011;36320;48.860;2.380;2023-04-03T09:36:40;7.40;;;1.70;;
4208;SDS011;36320;48.860;2.380;2023-04-03T09:39:10;8.10;;;1.90;;
4208;SDS011;36320;48.860;2.380;2023-04-03T09:41:38;6.80;;;1.70;;
4208;SDS011;36320;48.860;2.380;2023-04-03T09:44:17;8.82;;;1.90;;
4208;SDS011;36320;48.860;2.380;2023-04-03T09:46:46;8.02;;;1.80;;
4208;SDS011;36320;48.860;2.380;2023-04-03T09:49:12;6.68;;;1.58;;
4208;SDS011;36320;48.860;2.380;2023-04-03T09:51:39;7.90;;;1.98;;
4208;SDS011;36320;48.860;2.380;2023-04-03T09:54:25;8.80;;;2.15;;
4208;SDS011;36320;48.860;2.380;2023-04-03T09:57:10;7.20;;;1.70;;
4208;SDS011;36320;48.860;2.380;2023-04-03T09:59:56;8.00;;;2.20;;
4208;SDS011;36320;48.860;2.380;2023-04-03T10:02:30;6.70;;;1.60;;
4208;SDS011;36320;48.860;2.380;2023-04-03T10:04:57;6.40;;;1.60;;
4208;SDS011;36320;48.860;2.380;2023-04-03T10:07:34;11.40;;;1.80;;
4208;SDS011;36320;48.860;2.380;2023-04-03T10:10:23;6.80;;;1.70;;
4208;SDS011;36320;48.860;2.380;2023-04-03T10:13:35;6.73;;;1.67;;
4208;SDS011;36320;48.860;2.380;2023-04-03T10:15:55;7.07;;;1.52;;
4208;SDS011;36320;48.860;2.380;2023-04-03T10:18:41;6.53;;;1.80;;
4208;SDS011;36320;48.860;2.380;2023-04-03T10:24:11;7.20;;;1.83;;
4208;SDS011;36320;48.860;2.380;2023-04-03T10:32:08;8.70;;;1.80;;
4208;SDS011;36320;48.860;2.380;2023-04-03T10:34:44;7.57;;;1.67;;
4208;SDS011;36320;48.860;2.380;2023-04-03T10:43:04;6.90;;;1.50;;
4208;SDS011;36320;48.860;2.380;2023-04-03T10:54:26;7.45;;;1.40;;
4208;SDS011;36320;48.860;2.380;2023-04-03T10:57:00;7.53;;;1.80;;
4208;SDS011;36320;48.860;2.380;2023-04-03T10:59:33;7.00;;;1.90;;
4208;SDS011;36320;48.860;2.380;2023-04-03T11:04:59;8.60;;;1.80;;
4208;SDS011;36320;48.860;2.380;2023-04-03T11:07:43;6.60;;;1.50;;
4208;SDS011;36320;48.860;2.380;2023-04-03T11:12:52;6.57;;;1.50;;
4208;SDS011;36320;48.860;2.380;2023-04-03T11:15:40;7.90;;;1.70;;
4208;SDS011;36320;48.860;2.380;2023-04-03T11:18:13;6.60;;;1.60;;
4208;SDS011;36320;48.860;2.380;2023-04-03T11:23:34;8.20;;;1.70;;
4208;SDS011;36320;48.860;2.380;2023-04-03T11:26:09;7.50;;;1.67;;
4208;SDS011;36320;48.860;2.380;2023-04-03T11:28:40;6.75;;;1.60;;
4208;SDS011;36320;48.860;2.380;2023-04-03T11:36:59;6.80;;;1.40;;
4208;SDS011;36320;48.860;2.380;2023-04-03T11:39:33;7.45;;;2.00;;
4208;SDS011;36320;48.860;2.380;2023-04-03T11:53:03;7.40;;;1.40;;
4208;SDS011;36320;48.860;2.380;2023-04-03T11:58:26;6.47;;;1.50;;
4208;SDS011;36320;48.860;2.380;2023-04-03T12:00:58;6.40;;;1.52;;
4208;SDS011;36320;48.860;2.380;2023-04-03T12:14:01;6.32;;;1.23;;
4208;SDS011;36320;48.860;2.380;2023-04-03T12:24:58;6.32;;;1.40;;
4208;SDS011;36320;48.860;2.380;2023-04-03T12:27:20;7.40;;;1.50;;
4208;SDS011;36320;48.860;2.380;2023-04-03T12:29:59;6.80;;;1.40;;
4208;SDS011;36320;48.860;2.380;2023-04-03T12:40:57;6.10;;;1.30;;
4208;SDS011;36320;48.860;2.380;2023-04-03T12:48:37;6.30;;;1.40;;
4208;SDS011;36320;48.860;2.380;2023-04-03T12:51:13;7.80;;;1.60;;
4208;SDS011;36320;48.860;2.380;2023-04-03T12:53:45;7.32;;;1.50;;
4208;SDS011;36320;48.860;2.380;2023-04-03T12:56:24;8.73;;;1.60;;
4208;SDS011;36320;48.860;2.380;2023-04-03T13:01:44;8.35;;;1.73;;
4208;SDS011;36320;48.860;2.380;2023-04-03T13:04:19;6.30;;;1.30;;
4208;SDS011;36320;48.860;2.380;2023-04-03T13:06:45;6.18;;;1.10;;
4208;SDS011;36320;48.860;2.380;2023-04-03T13:14:49;7.20;;;1.30;;
4208;SDS011;36320;48.860;2.380;2023-04-03T13:17:17;6.93;;;1.67;;
4208;SDS011;36320;48.860;2.380;2023-04-03T13:19:44;6.60;;;1.30;;
4208;SDS011;36320;48.860;2.380;2023-04-03T13:25:04;6.30;;;1.20;;
4208;SDS011;36320;48.860;2.380;2023-04-03T13:27:32;8.50;;;1.40;;
4208;SDS011;36320;48.860;2.380;2023-04-03T13:30:00;7.80;;;1.40;;
4208;SDS011;36320;48.860;2.380;2023-04-03T13:32:29;6.50;;;1.35;;
4208;SDS011;36320;48.860;2.380;2023-04-03T13:34:56;7.00;;;1.50;;
4208;SDS011;36320;48.860;2.380;2023-04-03T13:37:23;6.82;;;1.65;;
4208;SDS011;36320;48.860;2.380;2023-04-03T13:39:59;6.90;;;1.30;;
4208;SDS011;36320;48.860;2.380;2023-04-03T13:42:32;6.32;;;1.35;;
4208;SDS011;36320;48.860;2.380;2023-04-03T13:47:49;8.13;;;1.58;;
4208;SDS011;36320;48.860;2.380;2023-04-03T13:52:48;6.95;;;1.50;;
4208;SDS011;36320;48.860;2.380;2023-04-03T14:03:16;9.80;;;1.50;;
4208;SDS011;36320;48.860;2.380;2023-04-03T14:05:44;6.90;;;1.27;;
4208;SDS011;36320;48.860;2.380;2023-04-03T14:08:10;8.13;;;1.70;;
4208;SDS011;36320;48.860;2.380;2023-04-03T14:10:36;8.90;;;1.90;;
4208;SDS011;36320;48.860;2.380;2023-04-03T14:13:02;6.15;;;1.38;;
4208;SDS011;36320;48.860;2.380;2023-04-03T14:15:29;9.70;;;1.60;;
4208;SDS011;36320;48.860;2.380;2023-04-03T14:17:57;10.27;;;1.60;;
4208;SDS011;36320;48.860;2.380;2023-04-03T14:20:24;7.28;;;1.67;;
4208;SDS011;36320;48.860;2.380;2023-04-03T14:22:51;8.30;;;1.70;;
4208;SDS011;36320;48.860;2.380;2023-04-03T14:25:18;8.73;;;1.40;;
4208;SDS011;36320;48.860;2.380;2023-04-03T14:27:46;7.45;;;1.30;;
4208;SDS011;36320;48.860;2.380;2023-04-03T14:30:16;6.25;;;1.40;;
4208;SDS011;36320;48.860;2.380;2023-04-03T14:33:01;7.67;;;1.30;;
4208;SDS011;36320;48.860;2.380;2023-04-03T14:35:27;8.00;;;1.40;;
4208;SDS011;36320;48.860;2.380;2023-04-03T14:37:54;6.20;;;1.30;;
4208;SDS011;36320;48.860;2.380;2023-04-03T14:40:22;6.22;;;1.30;;
4208;SDS011;36320;48.860;2.380;2023-04-03T14:42:51;8.00;;;1.70;;
4208;SDS011;36320;48.860;2.380;2023-04-03T14:45:19;6.38;;;1.20;;
4208;SDS011;36320;48.860;2.380;2023-04-03T14:47:53;8.30;;;1.85;;
4208;SDS011;36320;48.860;2.380;2023-04-03T14:50:22;6.30;;;1.20;;
4208;SDS011;36320;48.860;2.380;2023-04-03T14:52:49;9.68;;;1.70;;
4208;SDS011;36320;48.860;2.380;2023-04-03T14:55:17;7.30;;;1.60;;
4208;SDS011;36320;48.860;2.380;2023-04-03T14:57:44;5.85;;;1.00;;
4208;SDS011;36320;48.860;2.380;2023-04-03T15:00:14;6.53;;;1.23;;
4208;SDS011;36320;48.860;2.380;2023-04-03T15:02:43;6.55;;;1.30;;
4208;SDS011;36320;48.860;2.380;2023-04-03T15:05:11;7.40;;;1.50;;
4208;SDS011;36320;48.860;2.380;2023-04-03T15:07:41;6.80;;;1.20;;
4208;SDS011;36320;48.860;2.380;2023-04-03T15:10:30;8.70;;;1.20;;
4208;SDS011;36320;48.860;2.380;2023-04-03T15:12:57;6.10;;;1.20;;
4208;SDS011;36320;48.860;2.380;2023-04-03T15:15:23;7.97;;;1.40;;
4208;SDS011;36320;48.860;2.380;2023-04-03T15:17:54;8.15;;;1.65;;
4208;SDS011;36320;48.860;2.380;2023-04-03T15:20:24;8.98;;;1.50;;
4208;SDS011;36320;48.860;2.380;2023-04-03T15:22:51;6.78;;;1.40;;
4208;SDS011;36320;48.860;2.380;2023-04-03T15:25:18;6.28;;;1.30;;
4208;SDS011;36320;48.860;2.380;2023-04-03T15:27:44;6.40;;;1.20;;
4208;SDS011;36320;48.860;2.380;2023-04-03T15:30:14;6.00;;;1.30;;
4208;SDS011;36320;48.860;2.380;2023-04-03T15:32:42;7.75;;;1.77;;
4208;SDS011;36320;48.860;2.380;2023-04-03T15:35:08;6.30;;;1.38;;
4208;SDS011;36320;48.860;2.380;2023-04-03T15:37:33;6.93;;;1.15;;
4208;SDS011;36320;48.860;2.380;2023-04-03T15:39:59;13.03;;;1.80;;
4208;SDS011;36320;48.860;2.380;2023-04-03T15:42:25;9.70;;;1.75;;
4208;SDS011;36320;48.860;2.380;2023-04-03T15:44:51;9.70;;;1.60;;
4208;SDS011;36320;48.860;2.380;2023-04-03T15:47:16;7.00;;;1.20;;
4208;SDS011;36320;48.860;2.380;2023-04-03T15:49:42;6.70;;;1.50;;
4208;SDS011;36320;48.860;2.380;2023-04-03T15:52:09;6.40;;;1.30;;
4208;SDS011;36320;48.860;2.380;2023-04-03T15:54:35;6.70;;;1.50;;
4208;SDS011;36320;48.860;2.380;2023-04-03T15:57:00;6.70;;;1.30;;
4208;SDS011;36320;48.860;2.380;2023-04-03T15:59:26;7.93;;;1.50;;
4208;SDS011;36320;48.860;2.380;2023-04-03T16:01:53;7.90;;;1.40;;
4208;SDS011;36320;48.860;2.380;2023-04-03T16:04:19;7.10;;;1.40;;
4208;SDS011;36320;48.860;2.380;2023-04-03T16:06:45;12.00;;;1.33;;
4208;SDS011;36320;48.860;2.380;2023-04-03T16:09:12;10.45;;;1.40;;
4208;SDS011;36320;48.860;2.380;2023-04-03T16:11:38;10.77;;;2.90;;
4208;SDS011;36320;48.860;2.380;2023-04-03T16:14:05;10.40;;;1.80;;
4208;SDS011;36320;48.860;2.380;2023-04-03T16:16:32;6.43;;;1.20;;
4208;SDS011;36320;48.860;2.380;2023-04-03T16:18:58;6.50;;;1.23;;
4208;SDS011;36320;48.860;2.380;2023-04-03T16:21:24;11.60;;;1.50;;
4208;SDS011;36320;48.860;2.380;2023-04-03T16:23:51;7.85;;;1.70;;
4208;SDS011;36320;48.860;2.380;2023-04-03T16:26:18;6.50;;;1.20;;
4208;SDS011;36320;48.860;2.380;2023-04-03T16:28:45;8.02;;;2.00;;
4208;SDS011;36320;48.860;2.380;2023-04-03T16:31:10;6.63;;;1.40;;
4208;SDS011;36320;48.860;2.380;2023-04-03T16:33:36;7.27;;;1.60;;
4208;SDS011;36320;48.860;2.380;2023-04-03T16:36:03;6.37;;;1.40;;
4208;SDS011;36320;48.860;2.380;2023-04-03T16:38:31;7.15;;;1.60;;
4208;SDS011;36320;48.860;2.380;2023-04-03T16:40:57;10.30;;;1.65;;
4208;SDS011;36320;48.860;2.380;2023-04-03T16:43:25;11.13;;;1.40;;
4208;SDS011;36320;48.860;2.380;2023-04-03T16:45:52;9.18;;;1.73;;
4208;SDS011;36320;48.860;2.380;2023-04-03T16:48:17;7.77;;;1.60;;
4208;SDS011;36320;48.860;2.380;2023-04-03T16:50:47;8.93;;;2.10;;
4208;SDS011;36320;48.860;2.380;2023-04-03T16:53:15;9.35;;;1.50;;
4208;SDS011;36320;48.860;2.380;2023-04-03T16:55:41;16.30;;;1.90;;
4208;SDS011;36320;48.860;2.380;2023-04-03T16:58:07;9.30;;;2.13;;
4208;SDS011;36320;48.860;2.380;2023-04-03T17:00:33;7.40;;;1.40;;
4208;SDS011;36320;48.860;2.380;2023-04-03T17:02:59;6.97;;;1.23;;